createdAt,value
2018-10-18T00:02:26.062Z,17.93
2018-10-18T00:04:54.332Z,17.03
2018-10-18T00:07:22.920Z,15.47
2018-10-18T00:09:51.496Z,14.53
2018-10-18T00:12:19.849Z,16.13
2018-10-18T00:14:48.127Z,17.93
2018-10-18T00:17:21.754Z,15.93
2018-10-18T00:19:50.009Z,15.97
2018-10-18T00:22:18.301Z,15.77
2018-10-18T00:24:46.597Z,19.27
2018-10-18T00:27:14.838Z,17.20
2018-10-18T00:29:43.221Z,17.83
2018-10-18T00:32:11.665Z,17.43
2018-10-18T00:34:39.943Z,17.83
2018-10-18T00:37:08.170Z,14.43
2018-10-18T00:39:36.648Z,15.00
2018-10-18T00:42:05.311Z,14.73
2018-10-18T00:44:33.509Z,17.37
2018-10-18T00:47:01.788Z,15.33
2018-10-18T00:49:30.065Z,15.17
2018-10-18T00:51:58.407Z,17.40
2018-10-18T00:54:26.592Z,15.43
2018-10-18T00:56:54.902Z,18.43
2018-10-18T00:59:23.134Z,17.00
2018-10-18T01:01:51.448Z,16.50
2018-10-18T01:04:19.831Z,15.17
2018-10-18T01:06:48.216Z,14.97
2018-10-18T01:09:16.452Z,15.77
2018-10-18T01:11:44.743Z,17.77
2018-10-18T01:14:13.071Z,17.40
2018-10-18T01:16:41.416Z,21.97
2018-10-18T01:19:09.693Z,17.77
2018-10-18T01:21:37.943Z,16.20
2018-10-18T01:24:06.398Z,17.87
2018-10-18T01:26:34.534Z,17.13
2018-10-18T01:29:02.772Z,17.83
2018-10-18T01:31:31.026Z,18.60
2018-10-18T01:33:59.224Z,17.47
2018-10-18T01:36:27.498Z,15.43
2018-10-18T01:38:55.769Z,16.97
2018-10-18T01:41:23.950Z,14.70
2018-10-18T01:43:52.134Z,16.40
2018-10-18T01:46:20.325Z,15.53
2018-10-18T01:48:48.571Z,16.47
2018-10-18T01:51:16.841Z,17.27
2018-10-18T01:53:45.144Z,16.63
2018-10-18T01:56:13.582Z,16.33
2018-10-18T01:58:41.707Z,14.67
2018-10-18T02:01:10.184Z,15.03
2018-10-18T02:03:38.465Z,16.37
2018-10-18T02:06:07.038Z,18.40
2018-10-18T02:08:35.273Z,16.80
2018-10-18T02:11:03.592Z,16.13
2018-10-18T02:13:31.884Z,16.73
2018-10-18T02:16:00.112Z,17.80
2018-10-18T02:18:28.442Z,18.17
2018-10-18T02:20:56.761Z,19.67
2018-10-18T02:23:24.965Z,18.73
2018-10-18T02:25:53.256Z,20.10
2018-10-18T02:28:21.492Z,15.57
2018-10-18T02:30:49.794Z,17.00
2018-10-18T02:33:18.037Z,16.73
2018-10-18T02:35:46.323Z,17.57
2018-10-18T02:38:14.597Z,18.03
2018-10-18T02:40:42.805Z,18.87
2018-10-18T02:43:10.990Z,22.87
2018-10-18T02:45:39.192Z,17.80
2018-10-18T02:48:07.472Z,16.00
2018-10-18T02:50:35.628Z,15.90
2018-10-18T02:53:03.839Z,20.77
2018-10-18T02:55:32.032Z,19.80
2018-10-18T02:58:00.233Z,16.23
2018-10-18T03:00:28.429Z,17.10
2018-10-18T03:02:56.648Z,15.90
2018-10-18T03:05:24.962Z,15.27
2018-10-18T03:07:53.247Z,15.70
2018-10-18T03:10:21.497Z,15.93
2018-10-18T03:12:49.674Z,17.50
2018-10-18T03:15:17.937Z,16.80
2018-10-18T03:17:46.364Z,19.23
2018-10-18T03:20:14.615Z,16.03
2018-10-18T03:22:42.916Z,18.53
2018-10-18T03:25:11.469Z,18.53
2018-10-18T03:27:40.085Z,16.97
2018-10-18T03:30:08.781Z,17.13
2018-10-18T03:32:37.092Z,17.57
2018-10-18T03:35:06.438Z,15.20
2018-10-18T03:37:34.620Z,18.63
2018-10-18T03:40:02.990Z,15.77
2018-10-18T03:42:31.240Z,17.63
2018-10-18T03:44:59.465Z,16.43
2018-10-18T03:47:27.668Z,17.37
2018-10-18T03:49:55.941Z,17.67
2018-10-18T03:52:24.152Z,20.37
2018-10-18T03:54:52.416Z,16.23
2018-10-18T03:57:20.704Z,17.03
2018-10-18T03:59:49.085Z,15.67
2018-10-18T04:02:17.169Z,22.07
2018-10-18T04:04:45.405Z,17.50
2018-10-18T04:07:13.671Z,16.70
2018-10-18T04:09:41.950Z,14.93
2018-10-18T04:12:10.189Z,19.40
2018-10-18T04:14:38.321Z,16.80
2018-10-18T04:17:06.596Z,19.60
2018-10-18T04:19:34.947Z,17.40
2018-10-18T04:22:03.157Z,17.03
2018-10-18T04:24:31.431Z,16.73
2018-10-18T04:26:59.701Z,16.80
2018-10-18T04:29:28.137Z,19.57
2018-10-18T04:31:56.392Z,19.40
2018-10-18T04:34:24.695Z,19.00
2018-10-18T04:36:52.941Z,17.93
2018-10-18T04:39:21.165Z,17.53
2018-10-18T04:41:49.425Z,24.07
2018-10-18T04:44:17.668Z,17.83
2018-10-18T04:46:45.995Z,17.83
2018-10-18T04:49:14.192Z,18.57
2018-10-18T04:51:42.432Z,19.43
2018-10-18T04:54:10.651Z,22.53
2018-10-18T04:56:38.848Z,16.97
2018-10-18T04:59:07.038Z,19.77
2018-10-18T05:01:37.942Z,20.40
2018-10-18T05:04:06.248Z,19.43
2018-10-18T05:06:34.567Z,19.27
2018-10-18T05:09:03.069Z,18.77
2018-10-18T05:11:31.338Z,19.97
2018-10-18T05:13:59.525Z,23.07
2018-10-18T05:16:27.740Z,22.43
2018-10-18T05:18:55.974Z,19.40
2018-10-18T05:21:24.209Z,21.97
2018-10-18T05:23:52.500Z,24.13
2018-10-18T05:26:20.700Z,23.40
2018-10-18T05:28:48.967Z,21.43
2018-10-18T05:31:17.310Z,24.07
2018-10-18T05:33:45.690Z,33.33
2018-10-18T05:36:13.885Z,24.67
2018-10-18T05:38:42.163Z,20.53
2018-10-18T05:41:10.344Z,23.77
2018-10-18T05:43:38.529Z,20.37
2018-10-18T05:46:06.757Z,21.97
2018-10-18T05:48:34.965Z,23.20
2018-10-18T05:51:03.165Z,20.53
2018-10-18T05:53:31.421Z,20.23
2018-10-18T05:55:59.621Z,19.37
2018-10-18T05:58:27.847Z,27.23
2018-10-18T06:00:56.114Z,31.53
2018-10-18T06:03:24.348Z,25.57
2018-10-18T06:05:52.561Z,19.70
2018-10-18T06:08:20.869Z,23.17
2018-10-18T06:11:00.408Z,23.70
2018-10-18T06:13:28.704Z,21.23
2018-10-18T06:15:56.892Z,21.33
2018-10-18T06:18:25.096Z,18.67
2018-10-18T06:20:53.324Z,21.93
2018-10-18T06:23:21.577Z,19.60
2018-10-18T06:25:49.724Z,20.80
2018-10-18T06:28:17.916Z,25.07
2018-10-18T06:30:46.205Z,23.30
2018-10-18T06:33:14.601Z,26.87
2018-10-18T06:35:42.871Z,22.47
2018-10-18T06:38:11.100Z,19.00
2018-10-18T06:40:39.279Z,19.50
2018-10-18T06:43:07.543Z,22.17
2018-10-18T06:45:35.696Z,20.37
2018-10-18T06:48:04.302Z,21.43
2018-10-18T06:50:32.480Z,22.67
2018-10-18T06:53:00.972Z,23.63
2018-10-18T06:55:29.233Z,21.60
2018-10-18T06:57:57.520Z,22.63
2018-10-18T07:00:25.912Z,20.27
2018-10-18T07:02:54.092Z,19.77
2018-10-18T07:05:22.345Z,19.67
2018-10-18T07:07:52.149Z,19.80
2018-10-18T07:10:22.385Z,24.40
2018-10-18T07:12:56.043Z,19.17
2018-10-18T07:15:25.348Z,27.67
2018-10-18T07:17:54.488Z,19.33
2018-10-18T07:20:22.909Z,17.87
2018-10-18T07:22:51.112Z,25.33
2018-10-18T07:25:21.414Z,20.13
2018-10-18T07:27:51.280Z,27.70
2018-10-18T07:30:24.415Z,26.53
2018-10-18T07:32:52.961Z,23.17
2018-10-18T07:35:21.219Z,20.50
2018-10-18T07:37:49.492Z,23.13
2018-10-18T07:40:17.782Z,19.70
2018-10-18T07:42:46.053Z,19.33
2018-10-18T07:45:14.845Z,17.03
2018-10-18T07:47:43.664Z,17.73
2018-10-18T07:50:12.580Z,18.57
2018-10-18T07:52:41.098Z,18.40
2018-10-18T07:55:10.122Z,22.43
2018-10-18T07:57:38.371Z,16.50
2018-10-18T08:00:08.829Z,22.63
2018-10-18T08:02:37.103Z,25.40
2018-10-18T08:05:06.165Z,25.93
2018-10-18T08:07:34.600Z,25.50
2018-10-18T08:10:03.393Z,23.17
2018-10-18T08:12:31.937Z,24.77
2018-10-18T08:15:00.157Z,23.73
2018-10-18T08:17:28.499Z,23.37
2018-10-18T08:19:56.748Z,25.20
2018-10-18T08:22:25.010Z,25.80
2018-10-18T08:24:53.334Z,23.30
2018-10-18T08:27:21.576Z,23.30
2018-10-18T08:29:49.761Z,23.47
2018-10-18T08:32:17.949Z,21.13
2018-10-18T08:34:46.207Z,21.13
2018-10-18T08:37:14.482Z,20.73
2018-10-18T08:39:42.649Z,23.33
2018-10-18T08:42:10.855Z,20.63
2018-10-18T08:44:39.195Z,28.23
2018-10-18T08:47:07.472Z,23.03
2018-10-18T08:49:35.819Z,22.57
2018-10-18T08:52:04.228Z,21.40
2018-10-18T08:54:32.497Z,19.70
2018-10-18T08:57:00.727Z,24.10
2018-10-18T08:59:28.964Z,24.50
2018-10-18T09:01:57.150Z,24.77
2018-10-18T09:04:25.366Z,24.83
2018-10-18T09:06:53.646Z,20.90
2018-10-18T09:09:21.969Z,23.47
2018-10-18T09:11:50.303Z,23.00
2018-10-18T09:14:18.628Z,23.00
2018-10-18T09:16:46.839Z,22.97
2018-10-18T09:19:15.297Z,25.03
2018-10-18T09:21:43.580Z,26.40
2018-10-18T09:24:11.841Z,30.97
2018-10-18T09:26:40.163Z,29.53
2018-10-18T09:29:08.427Z,27.37
2018-10-18T09:31:36.727Z,25.50
2018-10-18T09:34:05.259Z,27.20
2018-10-18T09:36:33.472Z,27.73
2018-10-18T09:39:01.812Z,26.80
2018-10-18T09:41:29.977Z,29.90
2018-10-18T09:43:58.197Z,27.90
2018-10-18T09:46:26.621Z,28.00
2018-10-18T09:48:54.880Z,27.20
2018-10-18T09:51:23.096Z,24.70
2018-10-18T09:53:51.325Z,23.97
2018-10-18T09:56:19.898Z,26.97
2018-10-18T09:58:47.944Z,27.93
2018-10-18T10:01:21.719Z,27.90
2018-10-18T10:03:49.942Z,29.07
2018-10-18T10:06:18.223Z,26.10
2018-10-18T10:08:46.537Z,27.60
2018-10-18T10:11:15.038Z,29.23
2018-10-18T10:13:43.373Z,27.47
2018-10-18T10:16:11.493Z,26.87
2018-10-18T10:18:39.784Z,25.07
2018-10-18T10:21:08.060Z,26.57
2018-10-18T10:23:36.267Z,30.70
2018-10-18T10:26:04.665Z,29.47
2018-10-18T10:28:32.855Z,28.33
2018-10-18T10:31:01.103Z,29.90
2018-10-18T10:33:29.330Z,26.60
2018-10-18T10:36:00.341Z,30.00
2018-10-18T10:38:28.512Z,25.17
2018-10-18T10:40:56.962Z,28.00
2018-10-18T10:43:25.219Z,25.43
2018-10-18T10:45:53.628Z,28.53
2018-10-18T10:48:21.840Z,31.03
2018-10-18T10:50:50.102Z,34.93
2018-10-18T10:53:18.466Z,32.87
2018-10-18T10:55:46.861Z,31.30
2018-10-18T10:58:15.238Z,33.90
2018-10-18T11:01:20.332Z,30.13
2018-10-18T11:03:49.373Z,30.27
2018-10-18T11:06:17.625Z,29.47
2018-10-18T11:08:45.909Z,33.90
2018-10-18T11:11:15.072Z,32.30
2018-10-18T11:13:43.317Z,30.70
2018-10-18T11:16:11.558Z,30.53
2018-10-18T11:18:40.286Z,31.97
2018-10-18T11:21:10.033Z,32.63
2018-10-18T11:23:38.124Z,31.70
2018-10-18T11:26:06.442Z,30.37
2018-10-18T11:28:34.628Z,30.37
2018-10-18T11:31:02.957Z,32.07
2018-10-18T11:33:31.404Z,32.83
2018-10-18T11:35:59.697Z,31.53
2018-10-18T11:38:27.889Z,26.50
2018-10-18T11:40:56.128Z,31.10
2018-10-18T11:43:24.391Z,29.60
2018-10-18T11:45:52.588Z,35.83
2018-10-18T11:48:20.789Z,31.57
2018-10-18T11:50:49.012Z,34.23
2018-10-18T11:53:17.272Z,29.83
2018-10-18T11:55:45.538Z,26.43
2018-10-18T11:58:14.257Z,24.27
2018-10-18T12:00:42.545Z,25.60
2018-10-18T12:03:10.813Z,27.53
2018-10-18T12:05:39.087Z,26.47
2018-10-18T12:08:07.378Z,25.53
2018-10-18T12:10:35.638Z,23.13
2018-10-18T12:13:03.908Z,24.70
2018-10-18T12:15:32.189Z,29.97
2018-10-18T12:18:00.448Z,25.07
2018-10-18T12:20:28.752Z,21.97
2018-10-18T12:22:57.079Z,23.40
2018-10-18T12:25:25.294Z,22.53
2018-10-18T12:27:53.569Z,24.70
2018-10-18T12:30:21.852Z,24.90
2018-10-18T12:32:50.121Z,24.53
2018-10-18T12:35:18.579Z,24.10
2018-10-18T12:37:46.777Z,19.93
2018-10-18T12:40:15.095Z,20.67
2018-10-18T12:42:44.566Z,21.07
2018-10-18T12:45:13.329Z,23.90
2018-10-18T12:47:41.713Z,24.47
2018-10-18T12:50:10.344Z,24.77
2018-10-18T12:52:38.609Z,25.90
2018-10-18T12:55:07.128Z,24.07
2018-10-18T12:57:35.344Z,23.27
2018-10-18T13:00:03.667Z,22.97
2018-10-18T13:02:31.903Z,23.73
2018-10-18T13:05:00.177Z,24.83
2018-10-18T13:07:28.453Z,26.27
2018-10-18T13:09:56.704Z,24.30
2018-10-18T13:12:25.179Z,23.57
2018-10-18T13:14:53.281Z,28.63
2018-10-18T13:17:21.608Z,25.57
2018-10-18T13:19:49.848Z,26.20
2018-10-18T13:22:18.081Z,25.10
2018-10-18T13:24:46.406Z,23.80
2018-10-18T13:27:14.664Z,25.03
2018-10-18T13:29:42.956Z,25.67
2018-10-18T13:32:11.245Z,25.17
2018-10-18T13:34:39.472Z,24.20
2018-10-18T13:37:07.722Z,29.23
2018-10-18T13:39:35.966Z,26.90
2018-10-18T13:42:04.555Z,27.93
2018-10-18T13:44:32.797Z,27.97
2018-10-18T13:47:01.061Z,23.97
2018-10-18T13:49:29.484Z,26.43
2018-10-18T13:51:57.706Z,23.17
2018-10-18T13:54:25.925Z,24.27
2018-10-18T13:56:54.240Z,23.57
2018-10-18T13:59:33.950Z,23.93
2018-10-18T14:02:02.155Z,27.07
2018-10-18T14:04:30.306Z,26.40
2018-10-18T14:06:58.502Z,21.13
2018-10-18T14:09:26.702Z,23.73
2018-10-18T14:11:54.908Z,25.17
2018-10-18T14:14:23.106Z,25.13
2018-10-18T14:16:51.294Z,27.10
2018-10-18T14:19:19.595Z,24.27
2018-10-18T14:21:47.829Z,25.33
2018-10-18T14:24:16.041Z,23.23
2018-10-18T14:26:44.294Z,21.87
2018-10-18T14:29:12.565Z,22.27
2018-10-18T14:31:40.792Z,21.23
2018-10-18T14:34:09.423Z,24.93
2018-10-18T14:36:37.624Z,19.83
2018-10-18T14:39:07.365Z,19.83
2018-10-18T14:41:35.760Z,19.03
2018-10-18T14:44:04.125Z,20.27
2018-10-18T14:46:32.194Z,23.03
2018-10-18T14:49:00.543Z,23.87
2018-10-18T14:51:28.806Z,21.03
2018-10-18T14:53:57.007Z,20.40
2018-10-18T14:56:25.496Z,23.10
2018-10-18T14:58:53.798Z,21.57
2018-10-18T15:01:21.991Z,20.13
2018-10-18T15:03:50.212Z,18.33
2018-10-18T15:06:18.593Z,20.47
2018-10-18T15:08:46.837Z,20.13
2018-10-18T15:11:15.167Z,22.10
2018-10-18T15:13:43.382Z,22.00
2018-10-18T15:16:11.590Z,24.47
2018-10-18T15:18:39.785Z,27.50
2018-10-18T15:21:08.010Z,25.70
2018-10-18T15:23:36.193Z,29.77
2018-10-18T15:26:04.624Z,25.97
2018-10-18T15:28:32.804Z,25.20
2018-10-18T15:31:01.009Z,24.07
2018-10-18T15:33:29.170Z,27.10
2018-10-18T15:35:57.374Z,24.70
2018-10-18T15:38:25.739Z,25.73
2018-10-18T15:40:53.839Z,24.83
2018-10-18T15:43:21.953Z,25.30
2018-10-18T15:45:50.169Z,27.27
2018-10-18T15:48:18.360Z,25.47
2018-10-18T15:50:46.542Z,27.30
2018-10-18T15:53:14.950Z,28.50
2018-10-18T15:55:43.034Z,28.33
2018-10-18T15:58:11.239Z,30.53
2018-10-18T16:00:40.315Z,27.90
2018-10-18T16:03:08.598Z,27.37
2018-10-18T16:05:36.731Z,32.13
2018-10-18T16:08:05.182Z,32.47
2018-10-18T16:10:33.369Z,29.43
2018-10-18T16:13:01.680Z,32.17
2018-10-18T16:15:29.883Z,32.73
2018-10-18T16:17:58.393Z,33.43
2018-10-18T16:20:26.454Z,32.67
2018-10-18T16:22:54.687Z,33.97
2018-10-18T16:25:22.888Z,31.90
2018-10-18T16:27:51.317Z,31.93
2018-10-18T16:30:19.496Z,35.93
2018-10-18T16:32:47.718Z,34.60
2018-10-18T16:35:15.906Z,37.50
2018-10-18T16:37:44.190Z,36.07
2018-10-18T16:40:12.377Z,35.00
2018-10-18T16:42:40.553Z,33.93
2018-10-18T16:45:11.888Z,30.50
2018-10-18T16:47:40.074Z,37.60
2018-10-18T16:50:08.509Z,35.90
2018-10-18T16:52:36.673Z,34.33
2018-10-18T16:55:05.782Z,35.70
2018-10-18T16:57:34.009Z,35.33
2018-10-18T17:00:02.265Z,42.40
2018-10-18T17:02:30.462Z,36.10
2018-10-18T17:04:58.966Z,38.83
2018-10-18T17:07:27.148Z,37.33
2018-10-18T17:09:55.411Z,33.97
2018-10-18T17:12:23.558Z,37.13
2018-10-18T17:14:51.837Z,37.27
2018-10-18T17:17:20.102Z,43.57
2018-10-18T17:19:48.345Z,38.57
2018-10-18T17:22:16.583Z,35.27
2018-10-18T17:24:44.824Z,38.10
2018-10-18T17:27:13.401Z,38.97
2018-10-18T17:29:41.580Z,41.13
2018-10-18T17:32:09.806Z,40.13
2018-10-18T17:34:38.040Z,41.67
2018-10-18T17:37:06.457Z,41.73
2018-10-18T17:39:34.661Z,41.00
2018-10-18T17:42:02.888Z,40.70
2018-10-18T17:44:31.057Z,53.47
2018-10-18T17:46:59.272Z,46.90
2018-10-18T17:49:27.505Z,44.73
2018-10-18T17:51:55.781Z,45.80
2018-10-18T17:54:23.917Z,44.17
2018-10-18T17:56:52.225Z,41.43
2018-10-18T17:59:20.508Z,43.73
2018-10-18T18:01:48.717Z,46.07
2018-10-18T18:04:17.070Z,48.33
2018-10-18T18:06:45.367Z,44.77
2018-10-18T18:09:13.564Z,46.73
2018-10-18T18:11:41.892Z,53.73
2018-10-18T18:14:10.112Z,56.77
2018-10-18T18:16:38.328Z,51.93
2018-10-18T18:19:06.525Z,47.07
2018-10-18T18:21:34.761Z,80.13
2018-10-18T18:24:02.938Z,49.30
2018-10-18T18:26:45.074Z,47.30
2018-10-18T18:28:59.372Z,52.70
2018-10-18T18:31:27.668Z,53.00
2018-10-18T18:33:55.860Z,50.50
2018-10-18T18:36:24.021Z,46.60
2018-10-18T18:38:52.351Z,55.47
2018-10-18T18:41:20.513Z,52.80
2018-10-18T18:43:48.696Z,50.43
2018-10-18T18:46:16.900Z,51.63
2018-10-18T18:48:45.206Z,48.30
2018-10-18T18:51:13.554Z,98.53
2018-10-18T18:53:41.648Z,59.73
2018-10-18T18:56:09.809Z,48.17
2018-10-18T18:58:38.041Z,58.97
2018-10-18T19:01:06.207Z,43.00
2018-10-18T19:03:34.422Z,56.67
2018-10-18T19:06:02.636Z,54.03
2018-10-18T19:08:30.828Z,51.40
2018-10-18T19:10:58.988Z,50.40
2018-10-18T19:13:27.216Z,52.63
2018-10-18T19:15:55.443Z,52.30
2018-10-18T19:18:23.645Z,50.23
2018-10-18T19:20:51.871Z,56.33
2018-10-18T19:23:20.210Z,83.17
2018-10-18T19:25:48.413Z,52.93
2018-10-18T19:28:16.663Z,55.30
2018-10-18T19:30:44.893Z,56.37
2018-10-18T19:33:13.136Z,55.83
2018-10-18T19:35:41.341Z,52.00
2018-10-18T19:38:09.610Z,53.73
2018-10-18T19:40:37.736Z,53.93
2018-10-18T19:43:05.928Z,52.63
2018-10-18T19:45:34.320Z,53.50
2018-10-18T19:48:02.420Z,59.23
2018-10-18T19:50:30.600Z,57.60
2018-10-18T19:52:58.815Z,53.67
2018-10-18T19:55:26.963Z,52.13
2018-10-18T19:57:55.176Z,52.33
2018-10-18T20:00:23.351Z,57.03
2018-10-18T20:02:51.712Z,57.90
2018-10-18T20:05:20.043Z,53.83
2018-10-18T20:07:48.416Z,51.13
2018-10-18T20:10:16.550Z,54.03
2018-10-18T20:12:44.816Z,53.97
2018-10-18T20:15:13.022Z,54.40
2018-10-18T20:17:41.132Z,51.73
2018-10-18T20:20:10.362Z,49.03
2018-10-18T20:22:38.672Z,51.17
2018-10-18T20:25:07.716Z,51.37
2018-10-18T20:27:35.945Z,57.33
2018-10-18T20:30:04.695Z,48.87
2018-10-18T20:32:32.976Z,49.67
2018-10-18T20:35:01.266Z,46.63
2018-10-18T20:37:29.528Z,48.47
2018-10-18T20:39:57.737Z,44.87
2018-10-18T20:42:25.909Z,48.53
2018-10-18T20:44:54.339Z,49.57
2018-10-18T20:47:22.640Z,45.13
2018-10-18T20:49:50.784Z,49.50
2018-10-18T20:52:19.871Z,49.17
2018-10-18T20:54:48.049Z,47.70
2018-10-18T20:57:16.312Z,52.83
2018-10-18T20:59:44.457Z,47.20
2018-10-18T21:02:12.644Z,50.10
2018-10-18T21:04:40.816Z,50.07
2018-10-18T21:07:08.998Z,48.47
2018-10-18T21:09:37.273Z,44.67
2018-10-18T21:12:05.859Z,46.13
2018-10-18T21:14:34.079Z,41.87
2018-10-18T21:17:02.282Z,44.63
2018-10-18T21:19:30.441Z,43.93
2018-10-18T21:21:58.785Z,43.43
2018-10-18T21:24:27.019Z,43.17
2018-10-18T21:26:55.210Z,48.03
2018-10-18T21:29:23.409Z,42.37
2018-10-18T21:31:51.639Z,42.20
2018-10-18T21:34:19.961Z,39.37
2018-10-18T21:36:48.317Z,37.30
2018-10-18T21:39:29.744Z,41.00
2018-10-18T21:41:57.934Z,40.37
2018-10-18T21:44:27.957Z,42.37
2018-10-18T21:46:56.174Z,42.07
2018-10-18T21:49:24.423Z,39.50
2018-10-18T21:51:52.720Z,43.43
2018-10-18T21:54:20.918Z,40.67
2018-10-18T21:56:49.139Z,36.87
2018-10-18T21:59:17.732Z,41.03
2018-10-18T22:01:46.816Z,46.37
2018-10-18T22:04:15.488Z,45.93
2018-10-18T22:06:43.857Z,44.07
2018-10-18T22:09:12.091Z,40.40
2018-10-18T22:11:40.212Z,43.50
2018-10-18T22:14:09.149Z,42.33
2018-10-18T22:16:38.592Z,44.83
2018-10-18T22:19:08.006Z,41.73
2018-10-18T22:21:36.698Z,38.00
2018-10-18T22:24:05.233Z,39.67
2018-10-18T22:26:33.776Z,43.97
2018-10-18T22:29:02.044Z,36.23
2018-10-18T22:31:30.203Z,43.17
2018-10-18T22:33:58.394Z,38.23
2018-10-18T22:36:26.600Z,40.43
2018-10-18T22:38:55.056Z,36.63
2018-10-18T22:41:23.845Z,44.10
2018-10-18T22:43:52.024Z,38.93
2018-10-18T22:46:20.296Z,40.23
2018-10-18T22:48:48.557Z,37.77
2018-10-18T22:51:17.063Z,38.50
2018-10-18T22:53:45.301Z,38.90
2018-10-18T22:56:13.535Z,37.43
2018-10-18T22:58:41.772Z,38.27
2018-10-18T23:01:09.953Z,39.30
2018-10-18T23:03:38.236Z,40.80
2018-10-18T23:06:06.438Z,41.03
2018-10-18T23:08:34.654Z,39.73
2018-10-18T23:11:02.977Z,43.70
2018-10-18T23:13:31.311Z,42.67
2018-10-18T23:15:59.638Z,38.23
2018-10-18T23:18:27.846Z,38.03
2018-10-18T23:20:56.196Z,40.30
2018-10-18T23:23:24.376Z,38.50
2018-10-18T23:25:52.585Z,38.57
2018-10-18T23:28:20.773Z,38.10
2018-10-18T23:30:48.952Z,38.73
2018-10-18T23:33:17.158Z,38.23
2018-10-18T23:35:45.379Z,36.33
2018-10-18T23:38:13.584Z,40.27
2018-10-18T23:40:41.808Z,39.93
2018-10-18T23:43:10.020Z,37.53
2018-10-18T23:45:38.233Z,37.90
2018-10-18T23:48:06.561Z,38.37
2018-10-18T23:50:34.744Z,40.37
2018-10-18T23:53:03.012Z,41.77
2018-10-18T23:55:31.196Z,40.43
2018-10-18T23:57:59.419Z,39.17
